Time;durP1;ratioP1;P1;durP2;ratioP2;P2;SDS_P1;SDS_P2;PMS_P1;PMS_P2;Temp;Humidity;BMP_temperature;BMP_pressure;BME280_temperature;BME280_humidity;BME280_pressure;Samples;Min_cycle;Max_cycle;Signal;HPM_P1;HPM_P2
2021/04/29 04:02:24;;;;;;;7.00;5.77;;;9.10;96.30;;;;;;4945710;23;20554;-72
2021/04/29 04:04:50;;;;;;;7.87;6.60;;;9.10;96.30;;;;;;4878383;29;20406;-72
2021/04/29 04:07:17;;;;;;;7.70;6.60;;;9.20;96.30;;;;;;4877807;29;20705;-72
2021/04/29 04:09:43;;;;;;;9.40;6.37;;;9.20;96.30;;;;;;4878319;29;20206;-72
2021/04/29 04:12:11;;;;;;;7.50;6.20;;;9.20;96.30;;;;;;4878338;29;20430;-72
2021/04/29 04:14:37;;;;;;;10.57;6.73;;;9.10;96.30;;;;;;4878588;29;20474;-72
2021/04/29 04:17:03;;;;;;;12.43;7.57;;;9.10;96.30;;;;;;4878347;29;20414;-72
2021/04/29 04:19:28;;;;;;;10.83;7.00;;;9.00;96.30;;;;;;4878035;29;20673;-72
2021/04/29 04:21:54;;;;;;;10.10;6.40;;;9.10;96.30;;;;;;4877988;29;20197;-72
2021/04/29 04:24:19;;;;;;;7.07;6.20;;;9.00;96.30;;;;;;4878206;29;20676;-72
2021/04/29 04:26:45;;;;;;;7.50;6.73;;;9.00;96.30;;;;;;4878305;29;20190;-72
2021/04/29 04:29:10;;;;;;;8.33;6.27;;;9.00;96.30;;;;;;4877502;29;20618;-72
2021/04/29 04:31:36;;;;;;;20.37;7.43;;;9.00;96.30;;;;;;4877740;29;20378;-72
2021/04/29 04:34:02;;;;;;;10.60;6.83;;;9.10;96.30;;;;;;4874575;29;20544;-72
2021/04/29 04:36:28;;;;;;;9.80;6.47;;;9.10;96.30;;;;;;4878207;29;20662;-72
2021/04/29 04:38:54;;;;;;;8.83;5.90;;;9.00;96.30;;;;;;4878712;29;20524;-72
2021/04/29 04:41:20;;;;;;;10.80;7.10;;;9.00;96.30;;;;;;4880912;29;20529;-72
2021/04/29 04:43:45;;;;;;;8.80;6.67;;;9.10;96.30;;;;;;4881377;29;20181;-72
2021/04/29 04:46:11;;;;;;;8.20;6.70;;;9.10;96.30;;;;;;4881666;29;20178;-72
2021/04/29 04:48:36;;;;;;;11.53;8.03;;;9.10;96.30;;;;;;4881040;29;20666;-72
2021/04/29 04:51:02;;;;;;;9.90;5.80;;;9.10;96.30;;;;;;4868713;29;20209;-72
2021/04/29 04:53:28;;;;;;;11.37;7.40;;;9.10;96.30;;;;;;4876388;29;20178;-72
2021/04/29 04:55:53;;;;;;;7.90;6.43;;;9.20;96.30;;;;;;4881378;29;20414;-72
2021/04/29 04:58:19;;;;;;;12.83;6.00;;;9.10;96.30;;;;;;4880865;29;20170;-73
2021/04/29 05:00:48;;;;;;;8.33;6.87;;;9.10;96.30;;;;;;4879879;29;20205;-72
2021/04/29 05:03:15;;;;;;;10.80;6.13;;;9.10;96.30;;;;;;4865164;29;20178;-72
2021/04/29 05:05:42;;;;;;;10.73;6.20;;;9.10;96.30;;;;;;4862496;29;20411;-72
2021/04/29 05:08:07;;;;;;;12.20;6.10;;;9.10;96.30;;;;;;4862617;29;20450;-72
2021/04/29 05:10:34;;;;;;;6.97;5.97;;;9.10;96.30;;;;;;4876335;29;20443;-72
2021/04/29 05:13:01;;;;;;;8.73;6.77;;;9.20;96.30;;;;;;4879693;29;20647;-73
2021/04/29 05:15:28;;;;;;;8.20;6.90;;;9.20;96.30;;;;;;4876824;29;20514;-72
2021/04/29 05:17:53;;;;;;;7.10;6.23;;;9.20;96.30;;;;;;4876435;29;20501;-72
2021/04/29 05:20:19;;;;;;;15.50;6.73;;;9.20;96.30;;;;;;4880813;29;20509;-72
2021/04/29 05:22:44;;;;;;;8.23;6.70;;;9.20;96.30;;;;;;4881057;29;20575;-73
2021/04/29 05:25:10;;;;;;;8.60;6.63;;;9.20;96.30;;;;;;4880925;29;20213;-73
2021/04/29 05:27:36;;;;;;;12.77;6.17;;;9.20;96.30;;;;;;4880281;29;20185;-72
2021/04/29 05:30:02;;;;;;;11.13;6.10;;;9.30;96.30;;;;;;4880718;29;20229;-73
2021/04/29 05:32:27;;;;;;;7.43;5.90;;;9.20;96.30;;;;;;4880652;29;20281;-73
2021/04/29 05:34:53;;;;;;;7.20;6.30;;;9.30;96.30;;;;;;4879453;29;20502;-73
2021/04/29 05:37:18;;;;;;;8.30;6.20;;;9.30;96.30;;;;;;4880259;29;20644;-73
2021/04/29 05:39:44;;;;;;;9.77;7.10;;;9.30;96.30;;;;;;4880642;29;20265;-73
2021/04/29 05:42:10;;;;;;;13.07;6.63;;;9.30;96.30;;;;;;4880359;29;20209;-73
2021/04/29 05:44:35;;;;;;;7.47;5.67;;;9.30;96.30;;;;;;4879093;29;20213;-72
2021/04/29 05:47:01;;;;;;;7.77;5.73;;;9.30;96.30;;;;;;4878476;29;20196;-73
2021/04/29 05:49:27;;;;;;;8.30;6.57;;;9.40;96.30;;;;;;4879990;29;20620;-73
2021/04/29 05:51:52;;;;;;;8.07;6.30;;;9.40;96.30;;;;;;4871484;29;20207;-72
2021/04/29 05:54:18;;;;;;;8.07;6.03;;;9.40;96.30;;;;;;4867698;29;20299;-72
2021/04/29 05:56:43;;;;;;;10.47;7.50;;;9.40;96.30;;;;;;4877509;29;20186;-72
2021/04/29 05:59:09;;;;;;;14.57;9.33;;;9.40;96.30;;;;;;4867829;29;20273;-72
2021/04/29 06:01:34;;;;;;;25.27;16.53;;;9.40;96.30;;;;;;4861650;29;20214;-73
2021/04/29 06:03:59;;;;;;;14.53;9.97;;;9.40;96.30;;;;;;4867638;29;20257;-74
2021/04/29 06:06:25;;;;;;;14.63;9.20;;;9.50;96.30;;;;;;4865685;29;20224;-73
2021/04/29 06:08:51;;;;;;;8.70;6.87;;;9.50;96.30;;;;;;4878659;29;20265;-73
2021/04/29 06:11:17;;;;;;;9.10;6.30;;;9.50;96.30;;;;;;4872744;29;20198;-73
2021/04/29 06:13:44;;;;;;;6.63;5.93;;;9.60;96.30;;;;;;4863393;29;20183;-73
2021/04/29 06:16:11;;;;;;;9.30;6.07;;;9.60;96.30;;;;;;4878421;29;20426;-73
2021/04/29 06:18:36;;;;;;;7.80;5.77;;;9.70;96.30;;;;;;4879570;29;20426;-73
2021/04/29 06:21:02;;;;;;;8.30;6.57;;;9.70;96.30;;;;;;4879969;29;20563;-73
2021/04/29 06:23:28;;;;;;;7.80;6.23;;;9.70;96.30;;;;;;4880019;29;20192;-73
2021/04/29 06:25:53;;;;;;;6.97;5.77;;;9.80;96.30;;;;;;4879895;29;20209;-73
2021/04/29 06:28:19;;;;;;;12.30;6.23;;;9.80;96.30;;;;;;4879225;29;20604;-73
2021/04/29 06:30:44;;;;;;;7.90;6.47;;;9.80;96.30;;;;;;4879704;29;20197;-73
2021/04/29 06:33:10;;;;;;;10.87;7.20;;;9.70;96.30;;;;;;4879862;29;20286;-73
2021/04/29 06:35:35;;;;;;;9.13;6.60;;;9.80;96.30;;;;;;4880006;29;20190;-73
2021/04/29 06:38:01;;;;;;;7.87;7.07;;;9.70;96.30;;;;;;4863348;29;20190;-73
2021/04/29 06:40:26;;;;;;;8.50;7.13;;;9.80;96.30;;;;;;4861124;29;20187;-73
2021/04/29 06:42:52;;;;;;;9.20;6.50;;;9.80;96.30;;;;;;4874677;29;20189;-73
2021/04/29 06:45:17;;;;;;;7.83;6.23;;;9.80;96.30;;;;;;4878013;29;20618;-72
2021/04/29 06:47:43;;;;;;;10.50;7.33;;;9.80;96.30;;;;;;4878694;29;20178;-73
2021/04/29 06:50:10;;;;;;;12.27;7.00;;;9.90;96.30;;;;;;4878628;29;20219;-73
2021/04/29 06:52:35;;;;;;;10.87;7.33;;;9.90;96.30;;;;;;4878229;29;20264;-73
2021/04/29 06:55:01;;;;;;;10.60;8.00;;;10.00;96.30;;;;;;4877350;29;20513;-74
2021/04/29 06:57:26;;;;;;;8.07;6.40;;;10.00;96.30;;;;;;4870184;29;20199;-74
2021/04/29 06:59:52;;;;;;;9.83;6.60;;;10.00;96.30;;;;;;4873781;29;20198;-74
2021/04/29 07:02:17;;;;;;;10.67;7.13;;;10.00;96.30;;;;;;4878273;29;20240;-74
2021/04/29 07:04:43;;;;;;;9.57;6.10;;;9.90;96.30;;;;;;4878542;29;20177;-74
2021/04/29 07:07:08;;;;;;;11.67;7.10;;;9.90;96.30;;;;;;4878230;29;20186;-75
2021/04/29 07:09:34;;;;;;;9.53;6.23;;;10.00;96.30;;;;;;4879067;29;20277;-74
2021/04/29 07:11:59;;;;;;;8.73;6.13;;;10.10;96.30;;;;;;4865335;29;20213;-74
2021/04/29 07:14:25;;;;;;;7.50;6.33;;;10.20;96.30;;;;;;4860518;29;20182;-74
2021/04/29 07:16:50;;;;;;;7.57;6.80;;;10.30;96.30;;;;;;4867386;29;20241;-75
2021/04/29 07:19:16;;;;;;;7.63;6.40;;;10.40;96.30;;;;;;4878208;29;20185;-74
2021/04/29 07:21:42;;;;;;;8.60;6.67;;;10.40;96.30;;;;;;4878501;29;20285;-74
2021/04/29 07:24:08;;;;;;;14.67;7.03;;;10.50;96.30;;;;;;4878817;29;20174;-74
2021/04/29 07:26:34;;;;;;;9.30;7.30;;;10.60;96.30;;;;;;4880204;29;20264;-75
2021/04/29 07:29:04;;;;;;;8.93;7.60;;;10.70;96.30;;;;;;4896436;29;20535;-74
2021/04/29 07:31:29;;;;;;;7.80;6.30;;;10.90;96.30;;;;;;4880964;29;20459;-74
2021/04/29 07:33:55;;;;;;;7.93;6.77;;;11.00;96.30;;;;;;4860222;29;20438;-74
2021/04/29 07:36:21;;;;;;;9.17;7.00;;;11.10;96.30;;;;;;4871024;29;20261;-74
2021/04/29 07:38:46;;;;;;;9.03;6.97;;;11.10;96.30;;;;;;4866892;29;20245;-74
2021/04/29 07:41:12;;;;;;;8.70;6.70;;;11.20;96.30;;;;;;4875775;29;20576;-74
2021/04/29 07:43:38;;;;;;;10.90;7.40;;;11.30;96.30;;;;;;4878977;29;20181;-73
2021/04/29 07:46:04;;;;;;;10.07;7.17;;;11.30;96.30;;;;;;4868876;29;20190;-73
2021/04/29 07:48:30;;;;;;;8.50;7.17;;;11.30;96.30;;;;;;4859364;29;20185;-73
2021/04/29 07:50:55;;;;;;;9.93;7.20;;;11.30;96.30;;;;;;4861488;29;20443;-73
2021/04/29 07:53:21;;;;;;;10.00;7.50;;;11.20;96.30;;;;;;4878242;29;20729;-73
2021/04/29 07:55:46;;;;;;;9.00;7.23;;;11.30;96.30;;;;;;4878102;29;20177;-74
2021/04/29 07:58:12;;;;;;;8.20;6.80;;;11.40;96.30;;;;;;4877883;29;20169;-73
2021/04/29 08:00:37;;;;;;;10.43;7.10;;;11.50;96.30;;;;;;4873399;29;20218;-73
2021/04/29 08:03:04;;;;;;;10.37;6.77;;;11.50;96.30;;;;;;4866856;29;20174;-74
2021/04/29 08:05:30;;;;;;;12.17;6.57;;;11.60;96.30;;;;;;4875453;29;20211;-73
2021/04/29 08:07:55;;;;;;;7.20;6.23;;;11.60;96.30;;;;;;4877237;29;20434;-73
2021/04/29 08:10:21;;;;;;;7.03;6.33;;;11.50;96.30;;;;;;4877283;29;20216;-73
2021/04/29 08:12:46;;;;;;;8.80;5.70;;;11.50;96.30;;;;;;4881683;29;20208;-73
2021/04/29 08:15:12;;;;;;;8.63;5.63;;;11.50;96.30;;;;;;4881796;29;20210;-72
2021/04/29 08:17:38;;;;;;;11.30;5.60;;;11.60;96.30;;;;;;4881236;29;20271;-72
2021/04/29 08:20:04;;;;;;;7.03;4.87;;;11.70;96.30;;;;;;4881961;29;20718;-73
2021/04/29 08:22:30;;;;;;;7.70;5.77;;;11.70;96.30;;;;;;4864748;29;20218;-72
2021/04/29 08:24:56;;;;;;;11.17;5.67;;;11.70;96.30;;;;;;4871889;29;20434;-71
2021/04/29 08:27:23;;;;;;;7.80;5.83;;;11.80;96.30;;;;;;4881095;29;20209;-72
2021/04/29 08:29:48;;;;;;;9.80;5.60;;;11.80;96.30;;;;;;4881589;29;20820;-72
2021/04/29 08:32:14;;;;;;;8.80;5.10;;;12.00;96.30;;;;;;4881134;29;20466;-74
2021/04/29 08:34:39;;;;;;;6.90;5.13;;;11.90;96.30;;;;;;4881690;29;20269;-72
2021/04/29 08:37:05;;;;;;;5.93;5.40;;;12.00;96.30;;;;;;4880690;29;20205;-71
2021/04/29 08:39:31;;;;;;;6.50;4.80;;;12.10;96.30;;;;;;4881781;29;20196;-72
2021/04/29 08:41:56;;;;;;;6.47;4.73;;;12.30;96.30;;;;;;4869383;29;20270;-75
2021/04/29 08:44:22;;;;;;;5.20;3.80;;;12.20;96.30;;;;;;4877689;29;20241;-73
2021/04/29 08:46:47;;;;;;;6.37;4.10;;;12.00;96.30;;;;;;4877778;29;20638;-73
2021/04/29 08:49:15;;;;;;;12.67;7.87;;;11.70;96.30;;;;;;4879537;29;20210;-73
2021/04/29 08:51:41;;;;;;;8.47;7.30;;;11.60;96.30;;;;;;4871435;29;20210;-74
2021/04/29 08:54:06;;;;;;;5.77;4.70;;;11.50;96.30;;;;;;4876112;29;20482;-74
2021/04/29 08:56:32;;;;;;;4.37;3.70;;;11.50;96.30;;;;;;4865534;29;20561;-73
2021/04/29 08:58:59;;;;;;;4.70;3.37;;;11.40;96.30;;;;;;4880092;29;20190;-74
2021/04/29 09:01:25;;;;;;;4.93;4.07;;;11.40;96.30;;;;;;4879673;29;20233;-74
2021/04/29 09:03:51;;;;;;;5.07;3.93;;;11.40;96.30;;;;;;4879446;29;20816;-74
2021/04/29 09:06:17;;;;;;;4.70;4.10;;;11.40;96.30;;;;;;4881019;29;20462;-74
2021/04/29 09:08:43;;;;;;;5.60;4.00;;;11.40;96.30;;;;;;4880445;29;20201;-74
2021/04/29 09:11:14;;;;;;;4.27;3.87;;;11.40;96.30;;;;;;4871564;29;20202;-74
2021/04/29 09:13:59;;;;;;;4.40;4.00;;;11.50;96.30;;;;;;4880088;29;20434;-75
2021/04/29 09:16:40;;;;;;;3.37;2.67;;;11.70;96.30;;;;;;4883055;29;20879;-75
2021/04/29 09:19:20;;;;;;;4.53;3.27;;;11.80;96.30;;;;;;4863043;29;20779;-75
2021/04/29 09:21:46;;;;;;;4.57;3.43;;;11.60;96.30;;;;;;4876968;29;20468;-75
2021/04/29 09:24:11;;;;;;;3.33;3.03;;;11.40;96.30;;;;;;4881071;29;20504;-76
2021/04/29 09:26:37;;;;;;;6.63;3.07;;;11.40;96.30;;;;;;4872794;29;20225;-78
2021/04/29 09:29:09;;;;;;;6.57;2.80;;;11.30;96.30;;;;;;4873161;29;20690;-75
2021/04/29 09:31:47;;;;;;;3.00;2.70;;;11.90;96.30;;;;;;4872817;29;20202;-78
2021/04/29 09:34:17;;;;;;;4.33;2.77;;;12.90;96.30;;;;;;4878832;29;20430;-78
2021/04/29 09:36:43;;;;;;;2.80;2.60;;;13.20;96.30;;;;;;4880475;29;20473;-75
2021/04/29 09:39:18;;;;;;;3.83;3.23;;;13.60;96.30;;;;;;4879639;29;20433;-75
2021/04/29 09:41:49;;;;;;;3.97;3.53;;;13.80;96.30;;;;;;4879653;29;21032;-77
2021/04/29 09:44:18;;;;;;;3.23;2.93;;;14.00;96.30;;;;;;4880311;29;20437;-75
2021/04/29 09:46:56;;;;;;;4.27;3.50;;;14.50;96.30;;;;;;4880090;29;20513;-75
2021/04/29 09:49:23;;;;;;;4.27;3.87;;;15.10;96.30;;;;;;4878776;29;20465;-75
2021/04/29 09:51:49;;;;;;;4.07;3.70;;;14.80;96.30;;;;;;4861992;29;20483;-75
2021/04/29 09:54:24;;;;;;;4.20;3.80;;;14.80;96.30;;;;;;4864368;29;20426;-75
2021/04/29 09:56:58;;;;;;;4.70;4.30;;;14.90;96.30;;;;;;4877288;29;20434;-75
2021/04/29 09:59:25;;;;;;;4.77;4.30;;;15.10;95.20;;;;;;4861187;29;20987;-76
2021/04/29 10:01:53;;;;;;;3.37;3.00;;;15.40;94.90;;;;;;4874210;29;20458;-76
2021/04/29 10:04:18;;;;;;;3.80;2.70;;;16.20;94.00;;;;;;4880046;29;20775;-75
2021/04/29 10:06:46;;;;;;;4.97;2.83;;;17.40;93.00;;;;;;4879315;29;20926;-75
2021/04/29 10:09:13;;;;;;;2.30;2.10;;;17.80;90.90;;;;;;4877863;29;20204;-75
2021/04/29 10:11:40;;;;;;;4.17;3.40;;;18.30;89.00;;;;;;4877361;29;20528;-76
2021/04/29 10:14:07;;;;;;;4.83;2.83;;;17.90;80.20;;;;;;4875612;29;20427;-76
2021/04/29 10:16:33;;;;;;;5.87;3.30;;;17.80;89.10;;;;;;4871796;29;20434;-75
2021/04/29 10:18:59;;;;;;;9.30;3.30;;;18.10;87.70;;;;;;4880532;29;20430;-75
2021/04/29 10:21:25;;;;;;;3.03;2.83;;;17.80;83.60;;;;;;4879181;29;20209;-75
2021/04/29 10:23:51;;;;;;;5.57;3.43;;;17.50;87.30;;;;;;4879980;29;20197;-76
2021/04/29 10:26:28;;;;;;;4.60;2.80;;;17.50;86.20;;;;;;4879394;29;20426;-76
2021/04/29 10:29:03;;;;;;;5.30;3.13;;;17.90;86.20;;;;;;4877980;29;20201;-75
2021/04/29 10:31:31;;;;;;;3.87;3.57;;;18.40;84.90;;;;;;4869623;29;20458;-76
2021/04/29 10:34:02;;;;;;;7.37;3.20;;;18.00;84.30;;;;;;4878840;29;20422;-75
2021/04/29 10:36:39;;;;;;;4.47;3.40;;;18.00;82.20;;;;;;4870350;29;20439;-75
2021/04/29 10:39:13;;;;;;;3.83;3.30;;;17.90;80.70;;;;;;4860856;29;20423;-75
2021/04/29 10:41:40;;;;;;;4.63;3.57;;;17.00;84.20;;;;;;4868080;29;20951;-76
2021/04/29 10:44:19;;;;;;;4.20;3.70;;;17.20;84.70;;;;;;4879431;29;20449;-76
2021/04/29 10:46:47;;;;;;;4.57;2.70;;;17.70;82.90;;;;;;4868104;29;21049;-76
2021/04/29 10:49:15;;;;;;;4.00;3.10;;;17.60;80.80;;;;;;4859390;29;20478;-75
2021/04/29 10:51:47;;;;;;;3.30;3.00;;;18.00;81.40;;;;;;4869703;29;20457;-75
2021/04/29 10:54:15;;;;;;;3.53;2.70;;;17.90;78.70;;;;;;4879579;29;20407;-75
2021/04/29 10:56:42;;;;;;;5.10;3.27;;;18.30;76.40;;;;;;4878997;29;20434;-75
2021/04/29 10:59:13;;;;;;;4.13;2.90;;;18.20;79.70;;;;;;4878739;29;20460;-75
2021/04/29 11:01:44;;;;;;;6.77;3.30;;;19.10;82.30;;;;;;4869703;29;20462;-76
2021/04/29 11:04:39;;;;;;;4.93;3.40;;;19.50;78.20;;;;;;4869729;29;20474;-75
2021/04/29 11:07:11;;;;;;;2.70;2.50;;;18.30;77.20;;;;;;4871562;29;20953;-76
2021/04/29 11:09:36;;;;;;;3.03;2.40;;;19.00;80.20;;;;;;4878897;29;20450;-75
2021/04/29 11:12:04;;;;;;;5.90;3.10;;;19.00;78.20;;;;;;4878497;29;20458;-75
2021/04/29 11:14:44;;;;;;;8.37;3.00;;;19.20;74.60;;;;;;4878827;29;20182;-75
2021/04/29 11:17:24;;;;;;;3.70;2.80;;;19.40;74.10;;;;;;4880460;29;20434;-76
2021/04/29 11:19:57;;;;;;;2.67;2.47;;;19.70;79.00;;;;;;4878351;29;20414;-75
2021/04/29 11:22:34;;;;;;;9.70;3.37;;;18.50;74.40;;;;;;4877653;29;20474;-76
2021/04/29 11:25:01;;;;;;;4.67;2.73;;;17.50;75.70;;;;;;4878270;29;20512;-75
2021/04/29 11:27:28;;;;;;;3.00;2.53;;;17.10;76.60;;;;;;4864799;29;20467;-75
2021/04/29 11:30:06;;;;;;;8.33;2.20;;;17.00;78.80;;;;;;4860407;29;20462;-75
2021/04/29 11:32:33;;;;;;;4.87;2.87;;;16.90;78.60;;;;;;4875945;29;20523;-75
2021/04/29 11:35:00;;;;;;;4.43;2.70;;;17.10;77.10;;;;;;4878569;29;20411;-76
2021/04/29 11:37:27;;;;;;;4.63;2.93;;;17.10;77.40;;;;;;4877575;29;20418;-75
2021/04/29 11:40:01;;;;;;;5.80;3.60;;;17.10;77.50;;;;;;4860021;29;20441;-77
2021/04/29 11:42:32;;;;;;;4.37;2.90;;;16.70;78.10;;;;;;4865002;29;20956;-74
2021/04/29 11:45:16;;;;;;;5.50;2.90;;;16.40;79.70;;;;;;4878208;29;20422;-74
2021/04/29 11:48:04;;;;;;;5.90;3.00;;;16.50;83.50;;;;;;4877336;29;20422;-74
2021/04/29 11:50:36;;;;;;;3.47;2.30;;;17.70;82.60;;;;;;4874794;29;20465;-75
2021/04/29 11:53:13;;;;;;;5.47;3.17;;;18.60;81.10;;;;;;4859554;29;20443;-75
2021/04/29 11:55:41;;;;;;;3.33;2.73;;;18.20;75.00;;;;;;4869649;29;21085;-74
2021/04/29 11:58:11;;;;;;;2.60;2.33;;;17.70;78.30;;;;;;4877105;29;20410;-74
2021/04/29 12:00:39;;;;;;;6.10;2.73;;;17.60;79.60;;;;;;4870381;29;20497;-75
2021/04/29 12:03:10;;;;;;;5.00;2.63;;;17.50;80.10;;;;;;4869237;29;20875;-74
2021/04/29 12:05:39;;;;;;;2.67;2.47;;;17.90;81.00;;;;;;4873780;29;20437;-74
2021/04/29 12:08:09;;;;;;;5.33;2.80;;;18.50;76.10;;;;;;4869337;29;20432;-74
2021/04/29 12:10:41;;;;;;;3.87;2.67;;;18.30;75.50;;;;;;4877915;29;20482;-74
2021/04/29 12:13:07;;;;;;;3.50;2.50;;;17.90;72.90;;;;;;4877107;29;20425;-74
2021/04/29 12:15:32;;;;;;;3.57;2.50;;;18.10;75.40;;;;;;4876869;29;20423;-74
2021/04/29 12:17:59;;;;;;;3.50;3.00;;;18.30;75.20;;;;;;4873590;29;20220;-74
2021/04/29 12:20:25;;;;;;;5.30;2.30;;;18.40;75.20;;;;;;4871450;29;20558;-74
2021/04/29 12:22:50;;;;;;;3.73;2.67;;;18.60;77.20;;;;;;4860538;29;20434;-74
2021/04/29 12:25:21;;;;;;;3.20;1.90;;;18.50;74.20;;;;;;4860520;29;20205;-74
2021/04/29 12:27:47;;;;;;;3.67;2.03;;;18.90;72.00;;;;;;4877324;29;20185;-74
2021/04/29 12:30:13;;;;;;;2.30;2.07;;;19.00;72.00;;;;;;4877632;29;21160;-74
2021/04/29 12:32:44;;;;;;;4.53;2.10;;;18.20;69.50;;;;;;4878105;29;20201;-74
2021/04/29 12:35:11;;;;;;;3.17;2.13;;;17.80;72.40;;;;;;4877859;29;20418;-73
2021/04/29 12:37:48;;;;;;;2.80;2.60;;;18.50;73.10;;;;;;4877478;29;20422;-74
2021/04/29 12:40:32;;;;;;;2.70;2.03;;;18.20;71.80;;;;;;4877879;29;20783;-74
2021/04/29 12:43:15;;;;;;;2.30;1.90;;;17.30;71.90;;;;;;4878134;29;20406;-74
2021/04/29 12:45:56;;;;;;;2.50;2.03;;;18.10;72.40;;;;;;4877512;29;20445;-74
2021/04/29 12:48:32;;;;;;;2.40;2.00;;;18.90;72.50;;;;;;4877020;29;20438;-74
2021/04/29 12:51:27;;;;;;;4.10;1.70;;;18.90;70.80;;;;;;4877967;29;20563;-77
2021/04/29 12:54:07;;;;;;;3.33;2.13;;;18.90;67.10;;;;;;4868827;29;20477;-74
2021/04/29 12:56:40;;;;;;;3.53;2.27;;;18.60;69.90;;;;;;4878660;29;20803;-74
2021/04/29 12:59:17;;;;;;;2.60;2.00;;;17.90;73.50;;;;;;4875911;29;20426;-74
2021/04/29 13:01:44;;;;;;;2.90;2.27;;;18.20;72.90;;;;;;4862759;29;20986;-74
2021/04/29 13:04:31;;;;;;;3.33;2.20;;;18.30;71.40;;;;;;4862589;29;20414;-74
2021/04/29 13:07:03;;;;;;;2.23;1.97;;;18.90;72.80;;;;;;4862673;29;20431;-74
2021/04/29 13:09:49;;;;;;;4.63;1.93;;;19.40;71.70;;;;;;4862737;29;20443;-75
2021/04/29 13:12:17;;;;;;;4.10;2.67;;;19.80;72.50;;;;;;4862631;29;20939;-75
2021/04/29 13:14:46;;;;;;;7.13;2.13;;;19.80;69.40;;;;;;4862417;29;20802;-74
2021/04/29 13:17:19;;;;;;;4.73;2.10;;;19.80;65.50;;;;;;4862075;29;20422;-74
2021/04/29 13:20:17;;;;;;;3.20;2.00;;;19.60;66.00;;;;;;4862385;29;20474;-74
2021/04/29 13:22:42;;;;;;;2.53;2.00;;;19.20;68.90;;;;;;4862122;29;20793;-75
2021/04/29 13:25:12;;;;;;;2.20;1.93;;;18.70;68.20;;;;;;4862360;29;20427;-75
2021/04/29 13:27:38;;;;;;;3.17;2.20;;;19.10;66.70;;;;;;4861778;29;20174;-74
2021/04/29 13:30:04;;;;;;;2.63;1.67;;;19.40;65.90;;;;;;4862256;29;20972;-74
2021/04/29 13:32:32;;;;;;;3.30;1.70;;;18.90;67.20;;;;;;4861768;29;20210;-74
2021/04/29 13:35:01;;;;;;;2.13;1.60;;;19.10;71.70;;;;;;4862222;29;20422;-74
2021/04/29 13:37:27;;;;;;;5.47;1.90;;;18.90;69.40;;;;;;4861609;29;20418;-74
2021/04/29 13:39:53;;;;;;;4.30;2.07;;;18.40;67.50;;;;;;4861815;29;20422;-74
2021/04/29 13:42:18;;;;;;;3.80;2.20;;;18.50;67.90;;;;;;4861878;29;20447;-74
2021/04/29 13:44:45;;;;;;;7.63;1.97;;;18.10;67.90;;;;;;4876371;29;20192;-74
2021/04/29 13:47:11;;;;;;;2.50;1.87;;;17.80;71.00;;;;;;4861405;29;20170;-74
2021/04/29 13:49:37;;;;;;;6.43;2.00;;;17.60;71.70;;;;;;4869125;29;20462;-74
2021/04/29 13:52:06;;;;;;;3.00;1.97;;;17.50;73.50;;;;;;4880324;29;20457;-74
2021/04/29 13:54:31;;;;;;;2.90;1.60;;;17.60;71.20;;;;;;4880366;29;20182;-74
2021/04/29 13:56:57;;;;;;;1.77;1.47;;;17.40;72.50;;;;;;4880307;29;20470;-74
2021/04/29 13:59:23;;;;;;;1.30;1.20;;;17.20;72.70;;;;;;4879100;29;20185;-74
2021/04/29 14:01:48;;;;;;;6.07;1.33;;;17.20;71.30;;;;;;4879589;29;20225;-73
2021/04/29 14:04:14;;;;;;;3.70;1.37;;;16.80;67.90;;;;;;4880299;29;20180;-74
2021/04/29 14:06:40;;;;;;;7.03;1.33;;;16.80;72.10;;;;;;4880018;29;20182;-74
2021/04/29 14:09:06;;;;;;;2.53;1.40;;;16.70;72.50;;;;;;4877920;29;20853;-74
2021/04/29 14:11:31;;;;;;;7.40;1.97;;;16.70;71.00;;;;;;4879923;29;20257;-74
2021/04/29 14:13:57;;;;;;;4.40;1.80;;;16.90;73.80;;;;;;4880083;29;20174;-73
2021/04/29 14:16:22;;;;;;;1.80;1.23;;;17.10;68.70;;;;;;4880069;29;20181;-74
2021/04/29 14:18:48;;;;;;;2.80;1.33;;;17.20;71.50;;;;;;4879414;29;20228;-74
2021/04/29 14:21:16;;;;;;;2.87;1.20;;;17.20;71.00;;;;;;4879628;29;20198;-73
2021/04/29 14:23:42;;;;;;;2.67;1.50;;;17.10;70.20;;;;;;4879951;29;20550;-73
2021/04/29 14:26:07;;;;;;;6.83;1.60;;;17.20;70.50;;;;;;4879761;29;20419;-74
2021/04/29 14:28:33;;;;;;;5.47;1.40;;;17.10;71.20;;;;;;4878555;29;20458;-73
2021/04/29 14:30:59;;;;;;;7.07;1.70;;;17.00;69.40;;;;;;4879470;29;20706;-74
2021/04/29 14:33:25;;;;;;;1.43;1.27;;;16.90;69.60;;;;;;4879758;29;20410;-74
2021/04/29 14:35:50;;;;;;;3.30;1.30;;;16.70;70.30;;;;;;4879700;29;20178;-74
2021/04/29 14:38:16;;;;;;;4.80;1.20;;;16.40;72.80;;;;;;4879015;29;20594;-74
2021/04/29 14:40:42;;;;;;;4.67;1.67;;;16.50;72.50;;;;;;4879072;29;20196;-74
2021/04/29 14:43:08;;;;;;;4.40;1.83;;;16.30;71.20;;;;;;4879152;29;20422;-74
2021/04/29 14:45:34;;;;;;;7.53;1.80;;;16.10;72.50;;;;;;4880088;29;20410;-73
2021/04/29 14:47:59;;;;;;;3.13;1.73;;;15.80;71.70;;;;;;4880388;29;20178;-74
2021/04/29 14:50:26;;;;;;;2.70;1.60;;;15.50;74.20;;;;;;4880918;29;20748;-74
2021/04/29 14:52:52;;;;;;;2.40;1.57;;;15.40;74.80;;;;;;4880385;29;20181;-73
2021/04/29 14:55:18;;;;;;;2.67;1.33;;;15.20;75.80;;;;;;4880362;29;20414;-73
2021/04/29 14:57:43;;;;;;;8.00;1.97;;;15.10;77.10;;;;;;4879824;29;20811;-74
2021/04/29 15:00:09;;;;;;;1.63;1.53;;;14.60;81.30;;;;;;4880288;29;20174;-73
2021/04/29 15:02:38;;;;;;;5.90;1.93;;;14.00;86.90;;;;;;4871101;29;20222;-73
2021/04/29 15:05:07;;;;;;;1.83;1.67;;;13.90;89.80;;;;;;4857228;29;20436;-74
2021/04/29 15:07:34;;;;;;;3.00;1.80;;;13.70;91.50;;;;;;4865806;29;20442;-74
2021/04/29 15:10:00;;;;;;;3.20;1.97;;;13.70;92.60;;;;;;4877994;29;20473;-76
2021/04/29 15:12:26;;;;;;;3.57;2.10;;;13.50;92.40;;;;;;4879763;29;20797;-74
2021/04/29 15:14:52;;;;;;;4.60;1.90;;;13.70;92.70;;;;;;4880243;29;20414;-75
2021/04/29 15:17:18;;;;;;;2.53;1.93;;;13.90;93.60;;;;;;4876798;29;20206;-74
2021/04/29 15:19:44;;;;;;;3.10;2.00;;;14.10;92.00;;;;;;4879307;29;20255;-74
2021/04/29 15:22:09;;;;;;;3.57;1.90;;;14.00;89.60;;;;;;4880084;29;20820;-74
2021/04/29 15:24:36;;;;;;;7.40;1.63;;;13.80;90.00;;;;;;4879324;29;20212;-74
2021/04/29 15:27:02;;;;;;;1.90;1.30;;;13.60;89.00;;;;;;4878288;29;20218;-73
2021/04/29 15:29:27;;;;;;;1.80;1.60;;;13.40;89.00;;;;;;4877473;29;20457;-75
2021/04/29 15:31:52;;;;;;;3.33;2.17;;;13.30;90.60;;;;;;4876261;29;20682;-75
2021/04/29 15:34:18;;;;;;;2.80;1.70;;;13.10;90.10;;;;;;4861524;29;20173;-74
2021/04/29 15:36:43;;;;;;;2.20;1.50;;;12.80;90.80;;;;;;4871142;29;20206;-74
2021/04/29 15:39:09;;;;;;;5.47;1.50;;;12.70;90.60;;;;;;4879132;29;20201;-75
2021/04/29 15:41:36;;;;;;;2.60;1.60;;;12.70;90.70;;;;;;4878372;29;20201;-75
2021/04/29 15:44:02;;;;;;;2.03;1.80;;;12.80;91.10;;;;;;4878838;29;20186;-74
2021/04/29 15:46:28;;;;;;;4.17;2.03;;;12.80;90.10;;;;;;4879641;29;20457;-74
2021/04/29 15:48:53;;;;;;;3.30;1.50;;;12.80;90.80;;;;;;4878779;29;20509;-73
2021/04/29 15:51:19;;;;;;;2.40;1.90;;;12.70;90.80;;;;;;4879632;29;20345;-74
2021/04/29 15:53:46;;;;;;;2.80;1.70;;;12.70;92.10;;;;;;4880150;29;20177;-73
2021/04/29 15:56:12;;;;;;;4.73;1.77;;;12.50;95.90;;;;;;4879863;29;20260;-74
2021/04/29 15:58:37;;;;;;;2.17;1.97;;;12.40;94.70;;;;;;4879384;29;20443;-74
2021/04/29 16:01:05;;;;;;;3.33;2.30;;;12.40;95.80;;;;;;4879003;29;20369;-74
2021/04/29 16:03:31;;;;;;;4.70;2.77;;;12.30;95.00;;;;;;4879311;29;20180;-74
2021/04/29 16:05:56;;;;;;;3.20;2.40;;;12.30;95.30;;;;;;4879609;29;20474;-73
2021/04/29 16:08:22;;;;;;;3.40;2.37;;;12.40;94.10;;;;;;4878548;29;20190;-74
2021/04/29 16:10:48;;;;;;;5.50;2.30;;;12.40;92.50;;;;;;4879197;29;20217;-73
2021/04/29 16:13:14;;;;;;;2.33;2.10;;;12.60;94.80;;;;;;4879176;29;20283;-74
2021/04/29 16:15:39;;;;;;;2.73;1.87;;;12.80;93.00;;;;;;4878828;29;20493;-73
2021/04/29 16:18:05;;;;;;;6.03;3.27;;;13.00;91.80;;;;;;4878777;29;20230;-73
2021/04/29 16:20:30;;;;;;;2.77;2.37;;;13.20;91.00;;;;;;4878255;29;20200;-73
2021/04/29 16:22:58;;;;;;;5.57;2.30;;;13.50;89.90;;;;;;4878602;29;20186;-73
2021/04/29 16:25:24;;;;;;;4.57;2.00;;;13.60;90.40;;;;;;4878104;29;20192;-73
2021/04/29 16:27:50;;;;;;;3.60;2.30;;;13.80;88.20;;;;;;4877693;29;20457;-74
2021/04/29 16:30:16;;;;;;;2.10;1.67;;;14.00;90.50;;;;;;4877715;29;20473;-73
2021/04/29 16:32:41;;;;;;;2.20;2.00;;;14.20;85.90;;;;;;4880612;29;20555;-73
2021/04/29 16:35:08;;;;;;;2.50;2.30;;;14.30;86.50;;;;;;4881809;29;20422;-73
2021/04/29 16:37:35;;;;;;;3.83;1.50;;;14.60;85.70;;;;;;4880760;29;20185;-73
2021/04/29 16:40:02;;;;;;;1.87;1.57;;;14.30;84.60;;;;;;4881759;29;20481;-73
2021/04/29 16:42:28;;;;;;;2.00;1.80;;;14.40;84.40;;;;;;4881721;29;20578;-73
2021/04/29 16:44:54;;;;;;;2.43;2.20;;;14.50;84.60;;;;;;4881806;29;20962;-73
2021/04/29 16:47:19;;;;;;;1.80;1.60;;;14.30;83.80;;;;;;4881421;29;21120;-73
2021/04/29 16:49:45;;;;;;;6.83;1.83;;;14.20;85.10;;;;;;4880461;29;20289;-73
2021/04/29 16:52:10;;;;;;;3.30;1.70;;;14.10;86.90;;;;;;4881316;29;20201;-73